sensor_id;sensor_type;location;lat;lon;timestamp;P1;durP1;ratioP1;P2;durP2;ratioP2
21601;SDS011;10963;50.934;4.668;2023-10-08T00:00:24;4.03;;;2.40;;
21601;SDS011;10963;50.934;4.668;2023-10-08T00:03:12;6.63;;;2.73;;
21601;SDS011;10963;50.934;4.668;2023-10-08T00:05:39;6.93;;;3.10;;
21601;SDS011;10963;50.934;4.668;2023-10-08T00:08:08;5.40;;;2.90;;
21601;SDS011;10963;50.934;4.668;2023-10-08T00:10:43;9.37;;;2.83;;
21601;SDS011;10963;50.934;4.668;2023-10-08T00:13:10;5.40;;;2.90;;
21601;SDS011;10963;50.934;4.668;2023-10-08T00:15:40;7.00;;;2.97;;
21601;SDS011;10963;50.934;4.668;2023-10-08T00:18:18;11.83;;;2.97;;
21601;SDS011;10963;50.934;4.668;2023-10-08T00:20:48;5.10;;;2.73;;
21601;SDS011;10963;50.934;4.668;2023-10-08T00:23:23;7.10;;;3.00;;
21601;SDS011;10963;50.934;4.668;2023-10-08T00:25:51;7.30;;;2.63;;
21601;SDS011;10963;50.934;4.668;2023-10-08T00:28:22;5.83;;;3.13;;
21601;SDS011;10963;50.934;4.668;2023-10-08T00:30:52;6.00;;;3.27;;
21601;SDS011;10963;50.934;4.668;2023-10-08T00:33:20;5.27;;;2.80;;
21601;SDS011;10963;50.934;4.668;2023-10-08T00:35:49;6.00;;;2.87;;
21601;SDS011;10963;50.934;4.668;2023-10-08T00:38:15;7.97;;;3.10;;
21601;SDS011;10963;50.934;4.668;2023-10-08T00:40:45;5.03;;;2.40;;
21601;SDS011;10963;50.934;4.668;2023-10-08T00:46:04;9.83;;;2.90;;
21601;SDS011;10963;50.934;4.668;2023-10-08T00:48:43;8.07;;;2.83;;
21601;SDS011;10963;50.934;4.668;2023-10-08T00:51:11;6.63;;;2.90;;
21601;SDS011;10963;50.934;4.668;2023-10-08T00:53:42;7.67;;;3.00;;
21601;SDS011;10963;50.934;4.668;2023-10-08T00:56:09;7.30;;;2.70;;
21601;SDS011;10963;50.934;4.668;2023-10-08T00:58:43;7.20;;;3.00;;
21601;SDS011;10963;50.934;4.668;2023-10-08T01:01:14;8.33;;;3.10;;
21601;SDS011;10963;50.934;4.668;2023-10-08T01:03:41;6.53;;;2.90;;
21601;SDS011;10963;50.934;4.668;2023-10-08T01:06:12;7.23;;;2.73;;
21601;SDS011;10963;50.934;4.668;2023-10-08T01:08:39;7.40;;;3.03;;
21601;SDS011;10963;50.934;4.668;2023-10-08T01:11:16;4.07;;;2.87;;
21601;SDS011;10963;50.934;4.668;2023-10-08T01:13:42;8.00;;;3.23;;
21601;SDS011;10963;50.934;4.668;2023-10-08T01:16:12;4.70;;;2.40;;
21601;SDS011;10963;50.934;4.668;2023-10-08T01:18:39;5.30;;;2.67;;
21601;SDS011;10963;50.934;4.668;2023-10-08T01:21:08;11.70;;;3.23;;
21601;SDS011;10963;50.934;4.668;2023-10-08T01:23:54;8.90;;;3.20;;
21601;SDS011;10963;50.934;4.668;2023-10-08T01:26:20;7.07;;;3.20;;
21601;SDS011;10963;50.934;4.668;2023-10-08T01:28:47;4.20;;;2.90;;
21601;SDS011;10963;50.934;4.668;2023-10-08T01:31:13;4.67;;;2.73;;
21601;SDS011;10963;50.934;4.668;2023-10-08T01:33:40;6.53;;;2.43;;
21601;SDS011;10963;50.934;4.668;2023-10-08T01:36:14;7.53;;;2.67;;
21601;SDS011;10963;50.934;4.668;2023-10-08T01:38:40;5.80;;;3.10;;
21601;SDS011;10963;50.934;4.668;2023-10-08T01:41:16;7.33;;;2.93;;
21601;SDS011;10963;50.934;4.668;2023-10-08T01:43:45;7.00;;;2.73;;
21601;SDS011;10963;50.934;4.668;2023-10-08T01:46:11;8.70;;;3.10;;
21601;SDS011;10963;50.934;4.668;2023-10-08T01:48:38;5.87;;;3.13;;
21601;SDS011;10963;50.934;4.668;2023-10-08T01:51:04;7.53;;;2.70;;
21601;SDS011;10963;50.934;4.668;2023-10-08T01:53:40;5.93;;;2.90;;
21601;SDS011;10963;50.934;4.668;2023-10-08T01:56:06;8.27;;;3.20;;
21601;SDS011;10963;50.934;4.668;2023-10-08T01:58:32;10.00;;;3.07;;
21601;SDS011;10963;50.934;4.668;2023-10-08T02:01:01;5.37;;;3.53;;
21601;SDS011;10963;50.934;4.668;2023-10-08T02:03:30;6.47;;;2.90;;
21601;SDS011;10963;50.934;4.668;2023-10-08T02:05:58;9.50;;;2.83;;
21601;SDS011;10963;50.934;4.668;2023-10-08T02:08:25;5.30;;;2.90;;
21601;SDS011;10963;50.934;4.668;2023-10-08T02:10:56;5.73;;;3.30;;
21601;SDS011;10963;50.934;4.668;2023-10-08T02:13:22;8.03;;;3.07;;
21601;SDS011;10963;50.934;4.668;2023-10-08T02:15:51;7.17;;;3.30;;
21601;SDS011;10963;50.934;4.668;2023-10-08T02:18:17;7.17;;;2.70;;
21601;SDS011;10963;50.934;4.668;2023-10-08T02:20:43;6.37;;;2.93;;
21601;SDS011;10963;50.934;4.668;2023-10-08T02:23:12;9.87;;;3.47;;
21601;SDS011;10963;50.934;4.668;2023-10-08T02:25:38;7.63;;;3.47;;
21601;SDS011;10963;50.934;4.668;2023-10-08T02:28:05;6.00;;;2.93;;
21601;SDS011;10963;50.934;4.668;2023-10-08T02:30:36;6.67;;;2.77;;
21601;SDS011;10963;50.934;4.668;2023-10-08T02:33:04;9.10;;;3.57;;
21601;SDS011;10963;50.934;4.668;2023-10-08T02:35:45;7.17;;;3.10;;
21601;SDS011;10963;50.934;4.668;2023-10-08T02:38:12;10.60;;;4.13;;
21601;SDS011;10963;50.934;4.668;2023-10-08T02:40:41;12.70;;;3.10;;
21601;SDS011;10963;50.934;4.668;2023-10-08T02:43:13;8.53;;;3.53;;
21601;SDS011;10963;50.934;4.668;2023-10-08T02:45:40;7.30;;;3.10;;
21601;SDS011;10963;50.934;4.668;2023-10-08T02:48:12;7.63;;;3.40;;
21601;SDS011;10963;50.934;4.668;2023-10-08T02:50:42;6.50;;;3.13;;
21601;SDS011;10963;50.934;4.668;2023-10-08T02:53:10;6.43;;;3.30;;
21601;SDS011;10963;50.934;4.668;2023-10-08T02:55:37;7.37;;;3.33;;
21601;SDS011;10963;50.934;4.668;2023-10-08T02:58:12;6.73;;;3.33;;
21601;SDS011;10963;50.934;4.668;2023-10-08T03:00:41;5.93;;;2.70;;
21601;SDS011;10963;50.934;4.668;2023-10-08T03:03:16;7.47;;;3.00;;
21601;SDS011;10963;50.934;4.668;2023-10-08T03:05:44;7.23;;;3.50;;
21601;SDS011;10963;50.934;4.668;2023-10-08T03:08:17;5.07;;;3.13;;
21601;SDS011;10963;50.934;4.668;2023-10-08T03:10:50;6.73;;;3.30;;
21601;SDS011;10963;50.934;4.668;2023-10-08T03:13:20;6.00;;;2.90;;
21601;SDS011;10963;50.934;4.668;2023-10-08T03:15:53;10.20;;;3.47;;
21601;SDS011;10963;50.934;4.668;2023-10-08T03:18:28;8.07;;;3.20;;
21601;SDS011;10963;50.934;4.668;2023-10-08T03:21:04;6.53;;;3.00;;
21601;SDS011;10963;50.934;4.668;2023-10-08T03:23:45;7.67;;;3.23;;
21601;SDS011;10963;50.934;4.668;2023-10-08T03:26:13;12.53;;;3.83;;
21601;SDS011;10963;50.934;4.668;2023-10-08T03:29:00;8.33;;;3.17;;
21601;SDS011;10963;50.934;4.668;2023-10-08T03:31:30;8.43;;;3.20;;
21601;SDS011;10963;50.934;4.668;2023-10-08T03:34:14;8.57;;;3.40;;
21601;SDS011;10963;50.934;4.668;2023-10-08T03:36:43;7.37;;;3.30;;
21601;SDS011;10963;50.934;4.668;2023-10-08T03:39:13;7.23;;;3.17;;
21601;SDS011;10963;50.934;4.668;2023-10-08T03:41:42;8.80;;;3.97;;
21601;SDS011;10963;50.934;4.668;2023-10-08T03:44:17;5.33;;;2.87;;
21601;SDS011;10963;50.934;4.668;2023-10-08T03:46:45;5.80;;;3.63;;
21601;SDS011;10963;50.934;4.668;2023-10-08T03:49:13;4.73;;;2.73;;
21601;SDS011;10963;50.934;4.668;2023-10-08T03:51:47;6.27;;;3.13;;
21601;SDS011;10963;50.934;4.668;2023-10-08T03:54:17;6.63;;;2.77;;
21601;SDS011;10963;50.934;4.668;2023-10-08T03:56:44;5.73;;;3.23;;
21601;SDS011;10963;50.934;4.668;2023-10-08T03:59:14;8.13;;;3.57;;
21601;SDS011;10963;50.934;4.668;2023-10-08T04:01:59;7.00;;;3.23;;
21601;SDS011;10963;50.934;4.668;2023-10-08T04:04:41;9.00;;;3.33;;
21601;SDS011;10963;50.934;4.668;2023-10-08T04:07:22;8.63;;;3.77;;
21601;SDS011;10963;50.934;4.668;2023-10-08T04:10:14;6.37;;;3.10;;
21601;SDS011;10963;50.934;4.668;2023-10-08T04:13:08;7.43;;;3.53;;
21601;SDS011;10963;50.934;4.668;2023-10-08T04:15:40;4.83;;;2.73;;
21601;SDS011;10963;50.934;4.668;2023-10-08T04:18:08;7.33;;;3.57;;
21601;SDS011;10963;50.934;4.668;2023-10-08T04:20:35;7.80;;;3.87;;
21601;SDS011;10963;50.934;4.668;2023-10-08T04:23:07;9.47;;;3.70;;
21601;SDS011;10963;50.934;4.668;2023-10-08T04:25:39;5.70;;;3.23;;
21601;SDS011;10963;50.934;4.668;2023-10-08T04:28:08;9.83;;;3.40;;
21601;SDS011;10963;50.934;4.668;2023-10-08T04:30:39;6.20;;;3.37;;
21601;SDS011;10963;50.934;4.668;2023-10-08T04:33:07;7.87;;;3.43;;
21601;SDS011;10963;50.934;4.668;2023-10-08T04:35:37;8.23;;;3.47;;
21601;SDS011;10963;50.934;4.668;2023-10-08T04:38:15;7.80;;;3.60;;
21601;SDS011;10963;50.934;4.668;2023-10-08T04:40:47;6.27;;;3.60;;
21601;SDS011;10963;50.934;4.668;2023-10-08T04:43:25;6.30;;;3.40;;
21601;SDS011;10963;50.934;4.668;2023-10-08T04:45:58;8.50;;;3.80;;
21601;SDS011;10963;50.934;4.668;2023-10-08T04:48:31;6.10;;;3.17;;
21601;SDS011;10963;50.934;4.668;2023-10-08T04:50:58;8.03;;;3.27;;
21601;SDS011;10963;50.934;4.668;2023-10-08T04:53:27;4.67;;;3.03;;
21601;SDS011;10963;50.934;4.668;2023-10-08T04:55:58;6.23;;;3.10;;
21601;SDS011;10963;50.934;4.668;2023-10-08T04:58:38;6.43;;;3.70;;
21601;SDS011;10963;50.934;4.668;2023-10-08T05:01:12;6.10;;;3.30;;
21601;SDS011;10963;50.934;4.668;2023-10-08T05:03:53;9.77;;;3.70;;
21601;SDS011;10963;50.934;4.668;2023-10-08T05:06:26;7.27;;;3.47;;
21601;SDS011;10963;50.934;4.668;2023-10-08T05:09:02;7.03;;;3.87;;
21601;SDS011;10963;50.934;4.668;2023-10-08T05:11:37;9.67;;;3.33;;
21601;SDS011;10963;50.934;4.668;2023-10-08T05:14:15;9.27;;;3.27;;
21601;SDS011;10963;50.934;4.668;2023-10-08T05:17:03;7.23;;;3.70;;
21601;SDS011;10963;50.934;4.668;2023-10-08T05:19:36;6.03;;;3.43;;
21601;SDS011;10963;50.934;4.668;2023-10-08T05:22:23;6.27;;;3.83;;
21601;SDS011;10963;50.934;4.668;2023-10-08T05:24:55;11.30;;;4.10;;
21601;SDS011;10963;50.934;4.668;2023-10-08T05:27:40;8.77;;;3.43;;
21601;SDS011;10963;50.934;4.668;2023-10-08T05:30:16;11.03;;;4.13;;
21601;SDS011;10963;50.934;4.668;2023-10-08T05:32:57;6.07;;;3.40;;
21601;SDS011;10963;50.934;4.668;2023-10-08T05:35:47;11.13;;;3.70;;
21601;SDS011;10963;50.934;4.668;2023-10-08T05:38:16;5.43;;;3.17;;
21601;SDS011;10963;50.934;4.668;2023-10-08T05:40:55;10.87;;;4.40;;
21601;SDS011;10963;50.934;4.668;2023-10-08T05:43:26;6.90;;;3.37;;
21601;SDS011;10963;50.934;4.668;2023-10-08T05:51:28;7.70;;;3.90;;
21601;SDS011;10963;50.934;4.668;2023-10-08T05:54:13;6.93;;;3.60;;
21601;SDS011;10963;50.934;4.668;2023-10-08T05:56:55;6.83;;;3.63;;
21601;SDS011;10963;50.934;4.668;2023-10-08T06:02:20;10.70;;;3.50;;
21601;SDS011;10963;50.934;4.668;2023-10-08T06:04:57;9.33;;;3.70;;
21601;SDS011;10963;50.934;4.668;2023-10-08T06:07:39;7.43;;;3.70;;
21601;SDS011;10963;50.934;4.668;2023-10-08T06:10:18;6.20;;;3.57;;
21601;SDS011;10963;50.934;4.668;2023-10-08T06:15:37;6.90;;;3.93;;
21601;SDS011;10963;50.934;4.668;2023-10-08T06:18:18;10.33;;;4.40;;
21601;SDS011;10963;50.934;4.668;2023-10-08T06:21:00;8.03;;;3.93;;
21601;SDS011;10963;50.934;4.668;2023-10-08T06:23:33;11.63;;;4.60;;
21601;SDS011;10963;50.934;4.668;2023-10-08T06:26:01;11.47;;;4.20;;
21601;SDS011;10963;50.934;4.668;2023-10-08T06:28:36;9.77;;;4.23;;
21601;SDS011;10963;50.934;4.668;2023-10-08T06:31:04;11.90;;;4.13;;
21601;SDS011;10963;50.934;4.668;2023-10-08T06:33:38;7.13;;;3.80;;
21601;SDS011;10963;50.934;4.668;2023-10-08T06:36:09;8.67;;;3.70;;
21601;SDS011;10963;50.934;4.668;2023-10-08T06:38:38;8.83;;;3.53;;
21601;SDS011;10963;50.934;4.668;2023-10-08T06:41:05;8.13;;;3.70;;
21601;SDS011;10963;50.934;4.668;2023-10-08T06:43:46;6.80;;;3.53;;
21601;SDS011;10963;50.934;4.668;2023-10-08T06:46:30;6.40;;;3.57;;
21601;SDS011;10963;50.934;4.668;2023-10-08T06:48:59;7.60;;;3.77;;
21601;SDS011;10963;50.934;4.668;2023-10-08T06:51:33;8.80;;;3.77;;
21601;SDS011;10963;50.934;4.668;2023-10-08T06:54:00;6.27;;;3.37;;
21601;SDS011;10963;50.934;4.668;2023-10-08T06:56:27;8.93;;;3.70;;
21601;SDS011;10963;50.934;4.668;2023-10-08T06:58:53;8.43;;;3.90;;
21601;SDS011;10963;50.934;4.668;2023-10-08T07:01:19;7.97;;;4.03;;
21601;SDS011;10963;50.934;4.668;2023-10-08T07:03:54;7.73;;;3.67;;
21601;SDS011;10963;50.934;4.668;2023-10-08T07:06:28;8.10;;;3.70;;
21601;SDS011;10963;50.934;4.668;2023-10-08T07:09:01;7.43;;;3.70;;
21601;SDS011;10963;50.934;4.668;2023-10-08T07:11:33;7.13;;;3.50;;
21601;SDS011;10963;50.934;4.668;2023-10-08T07:14:03;8.53;;;3.43;;
21601;SDS011;10963;50.934;4.668;2023-10-08T07:16:31;10.63;;;4.53;;
21601;SDS011;10963;50.934;4.668;2023-10-08T07:19:00;7.80;;;4.10;;
21601;SDS011;10963;50.934;4.668;2023-10-08T07:21:40;6.63;;;3.87;;
21601;SDS011;10963;50.934;4.668;2023-10-08T07:24:15;9.43;;;4.00;;
21601;SDS011;10963;50.934;4.668;2023-10-08T07:26:41;12.07;;;4.37;;
21601;SDS011;10963;50.934;4.668;2023-10-08T07:29:12;11.53;;;4.10;;
21601;SDS011;10963;50.934;4.668;2023-10-08T07:31:42;11.87;;;3.90;;
21601;SDS011;10963;50.934;4.668;2023-10-08T07:34:17;8.53;;;4.23;;
21601;SDS011;10963;50.934;4.668;2023-10-08T07:36:46;11.33;;;4.77;;
21601;SDS011;10963;50.934;4.668;2023-10-08T07:39:17;8.97;;;4.37;;
21601;SDS011;10963;50.934;4.668;2023-10-08T07:41:52;6.93;;;3.53;;
21601;SDS011;10963;50.934;4.668;2023-10-08T07:44:21;7.77;;;3.70;;
21601;SDS011;10963;50.934;4.668;2023-10-08T07:46:48;6.40;;;3.87;;
21601;SDS011;10963;50.934;4.668;2023-10-08T07:49:15;8.30;;;4.03;;
21601;SDS011;10963;50.934;4.668;2023-10-08T07:51:42;6.83;;;3.50;;
21601;SDS011;10963;50.934;4.668;2023-10-08T07:54:16;10.23;;;3.80;;
21601;SDS011;10963;50.934;4.668;2023-10-08T07:56:49;8.07;;;3.90;;
21601;SDS011;10963;50.934;4.668;2023-10-08T07:59:25;10.70;;;4.67;;
21601;SDS011;10963;50.934;4.668;2023-10-08T08:01:53;7.97;;;4.13;;
21601;SDS011;10963;50.934;4.668;2023-10-08T08:04:20;14.67;;;4.00;;
21601;SDS011;10963;50.934;4.668;2023-10-08T08:06:49;9.77;;;4.23;;
21601;SDS011;10963;50.934;4.668;2023-10-08T08:09:18;9.80;;;4.37;;
21601;SDS011;10963;50.934;4.668;2023-10-08T08:11:49;13.77;;;5.10;;
21601;SDS011;10963;50.934;4.668;2023-10-08T08:14:21;7.97;;;4.07;;
21601;SDS011;10963;50.934;4.668;2023-10-08T08:16:50;13.27;;;4.43;;
21601;SDS011;10963;50.934;4.668;2023-10-08T08:19:18;8.60;;;4.23;;
21601;SDS011;10963;50.934;4.668;2023-10-08T08:21:49;12.90;;;4.70;;
21601;SDS011;10963;50.934;4.668;2023-10-08T08:24:19;10.13;;;4.97;;
21601;SDS011;10963;50.934;4.668;2023-10-08T08:27:01;8.93;;;4.77;;
21601;SDS011;10963;50.934;4.668;2023-10-08T08:29:36;9.17;;;4.47;;
21601;SDS011;10963;50.934;4.668;2023-10-08T08:32:10;9.30;;;4.17;;
21601;SDS011;10963;50.934;4.668;2023-10-08T08:34:41;10.57;;;4.90;;
21601;SDS011;10963;50.934;4.668;2023-10-08T08:37:09;12.80;;;4.20;;
21601;SDS011;10963;50.934;4.668;2023-10-08T08:39:37;9.93;;;4.67;;
21601;SDS011;10963;50.934;4.668;2023-10-08T08:42:06;9.97;;;4.77;;
21601;SDS011;10963;50.934;4.668;2023-10-08T08:44:33;9.97;;;4.70;;
21601;SDS011;10963;50.934;4.668;2023-10-08T08:47:07;10.77;;;4.37;;
21601;SDS011;10963;50.934;4.668;2023-10-08T08:49:36;9.07;;;5.23;;
21601;SDS011;10963;50.934;4.668;2023-10-08T08:52:02;10.03;;;4.50;;
21601;SDS011;10963;50.934;4.668;2023-10-08T08:54:29;13.87;;;5.00;;
21601;SDS011;10963;50.934;4.668;2023-10-08T08:56:57;10.47;;;4.53;;
21601;SDS011;10963;50.934;4.668;2023-10-08T08:59:29;11.77;;;5.70;;
21601;SDS011;10963;50.934;4.668;2023-10-08T09:01:58;9.87;;;4.50;;
21601;SDS011;10963;50.934;4.668;2023-10-08T09:04:32;13.07;;;4.50;;
21601;SDS011;10963;50.934;4.668;2023-10-08T09:06:58;11.77;;;5.73;;
21601;SDS011;10963;50.934;4.668;2023-10-08T09:09:32;14.00;;;4.60;;
21601;SDS011;10963;50.934;4.668;2023-10-08T09:12:02;12.97;;;4.50;;
21601;SDS011;10963;50.934;4.668;2023-10-08T09:14:30;14.43;;;5.10;;
21601;SDS011;10963;50.934;4.668;2023-10-08T09:17:02;13.77;;;4.77;;
21601;SDS011;10963;50.934;4.668;2023-10-08T09:19:30;13.40;;;5.13;;
21601;SDS011;10963;50.934;4.668;2023-10-08T09:22:04;10.10;;;4.87;;
21601;SDS011;10963;50.934;4.668;2023-10-08T09:24:36;9.97;;;3.80;;
21601;SDS011;10963;50.934;4.668;2023-10-08T09:27:04;10.97;;;4.67;;
21601;SDS011;10963;50.934;4.668;2023-10-08T09:29:31;10.37;;;4.93;;
21601;SDS011;10963;50.934;4.668;2023-10-08T09:32:09;14.07;;;5.07;;
21601;SDS011;10963;50.934;4.668;2023-10-08T09:34:36;14.60;;;5.00;;
21601;SDS011;10963;50.934;4.668;2023-10-08T09:37:10;12.40;;;4.70;;
21601;SDS011;10963;50.934;4.668;2023-10-08T09:39:36;13.10;;;4.63;;
21601;SDS011;10963;50.934;4.668;2023-10-08T09:42:06;12.17;;;4.70;;
21601;SDS011;10963;50.934;4.668;2023-10-08T09:44:39;9.93;;;5.07;;
21601;SDS011;10963;50.934;4.668;2023-10-08T09:47:06;10.73;;;5.20;;
21601;SDS011;10963;50.934;4.668;2023-10-08T09:49:46;11.33;;;5.10;;
21601;SDS011;10963;50.934;4.668;2023-10-08T09:52:29;11.83;;;5.53;;
21601;SDS011;10963;50.934;4.668;2023-10-08T09:55:04;12.43;;;5.23;;
21601;SDS011;10963;50.934;4.668;2023-10-08T09:57:35;9.87;;;4.90;;
21601;SDS011;10963;50.934;4.668;2023-10-08T10:00:01;8.37;;;4.90;;
21601;SDS011;10963;50.934;4.668;2023-10-08T10:02:32;13.17;;;4.80;;
21601;SDS011;10963;50.934;4.668;2023-10-08T10:05:01;11.33;;;4.67;;
21601;SDS011;10963;50.934;4.668;2023-10-08T10:07:27;10.60;;;4.83;;
21601;SDS011;10963;50.934;4.668;2023-10-08T10:09:53;13.17;;;5.77;;
21601;SDS011;10963;50.934;4.668;2023-10-08T10:12:21;9.97;;;5.37;;
21601;SDS011;10963;50.934;4.668;2023-10-08T10:14:52;13.93;;;6.40;;
21601;SDS011;10963;50.934;4.668;2023-10-08T10:17:24;22.30;;;6.23;;
21601;SDS011;10963;50.934;4.668;2023-10-08T10:20:00;15.50;;;5.70;;
21601;SDS011;10963;50.934;4.668;2023-10-08T10:22:27;12.93;;;5.93;;
21601;SDS011;10963;50.934;4.668;2023-10-08T10:25:00;9.20;;;5.63;;
21601;SDS011;10963;50.934;4.668;2023-10-08T10:28:24;15.60;;;5.50;;
21601;SDS011;10963;50.934;4.668;2023-10-08T10:30:25;12.43;;;5.60;;
21601;SDS011;10963;50.934;4.668;2023-10-08T10:32:59;14.27;;;5.90;;
21601;SDS011;10963;50.934;4.668;2023-10-08T10:35:33;9.97;;;4.83;;
21601;SDS011;10963;50.934;4.668;2023-10-08T10:38:05;12.83;;;5.40;;
21601;SDS011;10963;50.934;4.668;2023-10-08T10:40:33;14.50;;;5.37;;
21601;SDS011;10963;50.934;4.668;2023-10-08T10:43:25;12.33;;;4.97;;
21601;SDS011;10963;50.934;4.668;2023-10-08T10:45:58;12.63;;;5.67;;
21601;SDS011;10963;50.934;4.668;2023-10-08T10:48:45;13.90;;;5.37;;
21601;SDS011;10963;50.934;4.668;2023-10-08T10:51:22;19.47;;;5.27;;
21601;SDS011;10963;50.934;4.668;2023-10-08T10:53:50;13.07;;;5.43;;
21601;SDS011;10963;50.934;4.668;2023-10-08T10:56:25;15.73;;;5.27;;
21601;SDS011;10963;50.934;4.668;2023-10-08T10:59:07;9.80;;;5.00;;
21601;SDS011;10963;50.934;4.668;2023-10-08T11:01:52;13.47;;;5.30;;
21601;SDS011;10963;50.934;4.668;2023-10-08T11:04:40;14.30;;;5.63;;
21601;SDS011;10963;50.934;4.668;2023-10-08T11:07:18;11.83;;;5.90;;
21601;SDS011;10963;50.934;4.668;2023-10-08T11:09:48;14.43;;;5.10;;
21601;SDS011;10963;50.934;4.668;2023-10-08T11:12:17;13.80;;;4.83;;
21601;SDS011;10963;50.934;4.668;2023-10-08T11:14:48;10.27;;;5.73;;
21601;SDS011;10963;50.934;4.668;2023-10-08T11:17:23;10.23;;;5.00;;
21601;SDS011;10963;50.934;4.668;2023-10-08T11:19:56;9.57;;;5.37;;
21601;SDS011;10963;50.934;4.668;2023-10-08T11:22:28;13.53;;;5.43;;
21601;SDS011;10963;50.934;4.668;2023-10-08T11:25:20;11.70;;;4.87;;
21601;SDS011;10963;50.934;4.668;2023-10-08T11:27:55;11.93;;;5.10;;
21601;SDS011;10963;50.934;4.668;2023-10-08T11:30:30;10.47;;;5.60;;
21601;SDS011;10963;50.934;4.668;2023-10-08T11:33:00;14.10;;;5.43;;
21601;SDS011;10963;50.934;4.668;2023-10-08T11:35:31;12.50;;;5.80;;
21601;SDS011;10963;50.934;4.668;2023-10-08T11:37:59;11.90;;;4.47;;
21601;SDS011;10963;50.934;4.668;2023-10-08T11:40:28;14.57;;;5.37;;
21601;SDS011;10963;50.934;4.668;2023-10-08T11:42:55;10.63;;;5.57;;
21601;SDS011;10963;50.934;4.668;2023-10-08T11:45:23;14.53;;;5.70;;
21601;SDS011;10963;50.934;4.668;2023-10-08T11:47:53;13.60;;;4.87;;
21601;SDS011;10963;50.934;4.668;2023-10-08T11:50:25;13.63;;;5.17;;
21601;SDS011;10963;50.934;4.668;2023-10-08T11:53:03;11.73;;;5.70;;
21601;SDS011;10963;50.934;4.668;2023-10-08T11:55:32;9.67;;;4.53;;
21601;SDS011;10963;50.934;4.668;2023-10-08T11:58:04;8.47;;;4.73;;
21601;SDS011;10963;50.934;4.668;2023-10-08T12:00:41;9.80;;;5.00;;
21601;SDS011;10963;50.934;4.668;2023-10-08T12:03:17;12.93;;;4.97;;
21601;SDS011;10963;50.934;4.668;2023-10-08T12:05:44;11.73;;;4.83;;
21601;SDS011;10963;50.934;4.668;2023-10-08T12:08:17;14.77;;;4.83;;
21601;SDS011;10963;50.934;4.668;2023-10-08T12:10:46;8.67;;;4.40;;
21601;SDS011;10963;50.934;4.668;2023-10-08T12:13:13;11.87;;;5.33;;
21601;SDS011;10963;50.934;4.668;2023-10-08T12:15:50;9.73;;;4.77;;
21601;SDS011;10963;50.934;4.668;2023-10-08T12:18:23;12.43;;;4.88;;
21601;SDS011;10963;50.934;4.668;2023-10-08T12:20:54;14.23;;;6.03;;
21601;SDS011;10963;50.934;4.668;2023-10-08T12:23:20;11.57;;;5.03;;
21601;SDS011;10963;50.934;4.668;2023-10-08T12:25:54;14.27;;;5.82;;
21601;SDS011;10963;50.934;4.668;2023-10-08T12:28:23;11.15;;;5.30;;
21601;SDS011;10963;50.934;4.668;2023-10-08T12:30:50;9.63;;;4.63;;
21601;SDS011;10963;50.934;4.668;2023-10-08T12:33:19;8.68;;;5.05;;
21601;SDS011;10963;50.934;4.668;2023-10-08T12:35:48;14.05;;;5.20;;
21601;SDS011;10963;50.934;4.668;2023-10-08T12:38:14;10.32;;;4.60;;
21601;SDS011;10963;50.934;4.668;2023-10-08T12:40:45;11.50;;;4.82;;
21601;SDS011;10963;50.934;4.668;2023-10-08T12:43:18;14.43;;;4.93;;
21601;SDS011;10963;50.934;4.668;2023-10-08T12:45:51;9.27;;;4.50;;
21601;SDS011;10963;50.934;4.668;2023-10-08T12:48:18;8.35;;;4.80;;
21601;SDS011;10963;50.934;4.668;2023-10-08T12:50:48;13.07;;;5.75;;
21601;SDS011;10963;50.934;4.668;2023-10-08T12:53:22;15.27;;;5.20;;
21601;SDS011;10963;50.934;4.668;2023-10-08T12:56:09;9.88;;;5.13;;
21601;SDS011;10963;50.934;4.668;2023-10-08T12:58:41;11.55;;;5.55;;
21601;SDS011;10963;50.934;4.668;2023-10-08T13:01:13;11.50;;;4.45;;
21601;SDS011;10963;50.934;4.668;2023-10-08T13:03:39;14.48;;;5.30;;
21601;SDS011;10963;50.934;4.668;2023-10-08T13:06:13;12.52;;;5.20;;
21601;SDS011;10963;50.934;4.668;2023-10-08T13:08:46;13.05;;;5.20;;
21601;SDS011;10963;50.934;4.668;2023-10-08T13:11:25;11.40;;;5.65;;
21601;SDS011;10963;50.934;4.668;2023-10-08T13:13:55;10.10;;;5.20;;
21601;SDS011;10963;50.934;4.668;2023-10-08T13:16:22;10.93;;;5.85;;
21601;SDS011;10963;50.934;4.668;2023-10-08T13:18:50;13.70;;;5.65;;
21601;SDS011;10963;50.934;4.668;2023-10-08T13:21:17;11.80;;;6.20;;
21601;SDS011;10963;50.934;4.668;2023-10-08T13:23:47;18.70;;;6.63;;
21601;SDS011;10963;50.934;4.668;2023-10-08T13:26:15;14.32;;;5.53;;
21601;SDS011;10963;50.934;4.668;2023-10-08T13:28:43;12.25;;;5.47;;
21601;SDS011;10963;50.934;4.668;2023-10-08T13:31:10;9.38;;;5.22;;
21601;SDS011;10963;50.934;4.668;2023-10-08T13:33:43;15.93;;;6.13;;
21601;SDS011;10963;50.934;4.668;2023-10-08T13:36:14;9.68;;;5.40;;
21601;SDS011;10963;50.934;4.668;2023-10-08T13:38:42;11.50;;;5.28;;
21601;SDS011;10963;50.934;4.668;2023-10-08T13:41:14;13.18;;;5.57;;
21601;SDS011;10963;50.934;4.668;2023-10-08T13:43:43;13.48;;;5.80;;
21601;SDS011;10963;50.934;4.668;2023-10-08T13:46:19;15.05;;;5.63;;
21601;SDS011;10963;50.934;4.668;2023-10-08T13:48:48;12.57;;;5.22;;
21601;SDS011;10963;50.934;4.668;2023-10-08T13:51:15;11.03;;;5.20;;
21601;SDS011;10963;50.934;4.668;2023-10-08T13:53:48;13.10;;;5.33;;
21601;SDS011;10963;50.934;4.668;2023-10-08T13:56:19;14.02;;;6.00;;
21601;SDS011;10963;50.934;4.668;2023-10-08T13:58:49;13.18;;;5.60;;
21601;SDS011;10963;50.934;4.668;2023-10-08T14:01:16;12.23;;;5.68;;
21601;SDS011;10963;50.934;4.668;2023-10-08T14:03:50;11.70;;;5.25;;
21601;SDS011;10963;50.934;4.668;2023-10-08T14:06:29;11.27;;;5.18;;
21601;SDS011;10963;50.934;4.668;2023-10-08T14:08:54;13.83;;;5.63;;
21601;SDS011;10963;50.934;4.668;2023-10-08T14:11:21;11.35;;;5.82;;
21601;SDS011;10963;50.934;4.668;2023-10-08T14:13:54;14.30;;;5.13;;
21601;SDS011;10963;50.934;4.668;2023-10-08T14:16:21;14.13;;;5.68;;
21601;SDS011;10963;50.934;4.668;2023-10-08T14:18:53;14.37;;;5.47;;
21601;SDS011;10963;50.934;4.668;2023-10-08T14:21:21;10.23;;;5.28;;
21601;SDS011;10963;50.934;4.668;2023-10-08T14:23:58;12.25;;;5.65;;
21601;SDS011;10963;50.934;4.668;2023-10-08T14:26:28;13.15;;;5.55;;
21601;SDS011;10963;50.934;4.668;2023-10-08T14:29:03;13.60;;;5.05;;
21601;SDS011;10963;50.934;4.668;2023-10-08T14:31:42;15.70;;;5.63;;
21601;SDS011;10963;50.934;4.668;2023-10-08T14:34:13;12.90;;;5.70;;
21601;SDS011;10963;50.934;4.668;2023-10-08T14:36:43;10.18;;;5.10;;
21601;SDS011;10963;50.934;4.668;2023-10-08T14:39:27;14.40;;;5.88;;
21601;SDS011;10963;50.934;4.668;2023-10-08T14:42:12;10.68;;;5.20;;
21601;SDS011;10963;50.934;4.668;2023-10-08T14:44:56;12.45;;;4.97;;
21601;SDS011;10963;50.934;4.668;2023-10-08T14:47:27;10.55;;;5.80;;
21601;SDS011;10963;50.934;4.668;2023-10-08T14:49:55;11.57;;;4.95;;
21601;SDS011;10963;50.934;4.668;2023-10-08T14:52:21;9.98;;;5.07;;
21601;SDS011;10963;50.934;4.668;2023-10-08T14:54:47;12.43;;;5.40;;
21601;SDS011;10963;50.934;4.668;2023-10-08T14:57:19;12.60;;;5.55;;
21601;SDS011;10963;50.934;4.668;2023-10-08T14:59:45;12.18;;;4.78;;
21601;SDS011;10963;50.934;4.668;2023-10-08T15:02:10;9.43;;;4.85;;
21601;SDS011;10963;50.934;4.668;2023-10-08T15:04:36;13.02;;;4.85;;
21601;SDS011;10963;50.934;4.668;2023-10-08T15:07:07;10.27;;;5.63;;
21601;SDS011;10963;50.934;4.668;2023-10-08T15:09:39;13.75;;;4.95;;
21601;SDS011;10963;50.934;4.668;2023-10-08T15:12:05;10.02;;;4.70;;
21601;SDS011;10963;50.934;4.668;2023-10-08T15:14:34;16.35;;;5.03;;
21601;SDS011;10963;50.934;4.668;2023-10-08T15:17:02;12.35;;;5.13;;
21601;SDS011;10963;50.934;4.668;2023-10-08T15:19:28;9.32;;;4.90;;
21601;SDS011;10963;50.934;4.668;2023-10-08T15:21:54;10.80;;;5.23;;